sensor_id;sensor_type;location;lat;lon;timestamp;P1;durP1;ratioP1;P2;durP2;ratioP2
20476;SDS011;10397;50.948;11.092;2023-07-13T00:01:38;2.00;;;0.50;;
20476;SDS011;10397;50.948;11.092;2023-07-13T00:04:09;1.05;;;0.50;;
20476;SDS011;10397;50.948;11.092;2023-07-13T00:06:41;1.67;;;0.72;;
20476;SDS011;10397;50.948;11.092;2023-07-13T00:09:13;1.92;;;0.72;;
20476;SDS011;10397;50.948;11.092;2023-07-13T00:11:43;0.67;;;0.40;;
20476;SDS011;10397;50.948;11.092;2023-07-13T00:14:14;4.17;;;0.50;;
20476;SDS011;10397;50.948;11.092;2023-07-13T00:16:45;7.08;;;0.50;;
20476;SDS011;10397;50.948;11.092;2023-07-13T00:19:17;1.87;;;0.57;;
20476;SDS011;10397;50.948;11.092;2023-07-13T00:21:48;0.80;;;0.40;;
20476;SDS011;10397;50.948;11.092;2023-07-13T00:24:19;2.77;;;0.55;;
20476;SDS011;10397;50.948;11.092;2023-07-13T00:26:50;2.10;;;0.70;;
20476;SDS011;10397;50.948;11.092;2023-07-13T00:29:21;3.65;;;0.70;;
20476;SDS011;10397;50.948;11.092;2023-07-13T00:31:53;3.42;;;0.80;;
20476;SDS011;10397;50.948;11.092;2023-07-13T00:34:24;1.87;;;0.60;;
20476;SDS011;10397;50.948;11.092;2023-07-13T00:36:56;2.17;;;0.40;;
20476;SDS011;10397;50.948;11.092;2023-07-13T00:39:27;3.17;;;0.65;;
20476;SDS011;10397;50.948;11.092;2023-07-13T00:41:59;1.92;;;0.60;;
20476;SDS011;10397;50.948;11.092;2023-07-13T00:44:30;3.33;;;0.50;;
20476;SDS011;10397;50.948;11.092;2023-07-13T00:47:00;1.53;;;0.73;;
20476;SDS011;10397;50.948;11.092;2023-07-13T00:49:32;2.00;;;0.40;;
20476;SDS011;10397;50.948;11.092;2023-07-13T00:52:04;1.43;;;0.63;;
20476;SDS011;10397;50.948;11.092;2023-07-13T00:54:34;2.08;;;0.65;;
20476;SDS011;10397;50.948;11.092;2023-07-13T00:57:05;1.87;;;0.50;;
20476;SDS011;10397;50.948;11.092;2023-07-13T00:59:36;5.03;;;0.60;;
20476;SDS011;10397;50.948;11.092;2023-07-13T01:02:06;1.57;;;0.60;;
20476;SDS011;10397;50.948;11.092;2023-07-13T01:04:38;3.12;;;0.50;;
20476;SDS011;10397;50.948;11.092;2023-07-13T01:07:09;2.25;;;0.60;;
20476;SDS011;10397;50.948;11.092;2023-07-13T01:09:39;1.33;;;0.50;;
20476;SDS011;10397;50.948;11.092;2023-07-13T01:12:11;1.35;;;0.62;;
20476;SDS011;10397;50.948;11.092;2023-07-13T01:14:42;2.55;;;0.60;;
20476;SDS011;10397;50.948;11.092;2023-07-13T01:17:13;1.12;;;0.40;;
20476;SDS011;10397;50.948;11.092;2023-07-13T01:19:45;2.72;;;0.70;;
20476;SDS011;10397;50.948;11.092;2023-07-13T01:22:16;2.62;;;0.50;;
20476;SDS011;10397;50.948;11.092;2023-07-13T01:24:47;2.52;;;0.60;;
20476;SDS011;10397;50.948;11.092;2023-07-13T01:27:22;1.47;;;0.50;;
20476;SDS011;10397;50.948;11.092;2023-07-13T01:29:51;2.87;;;0.50;;
20476;SDS011;10397;50.948;11.092;2023-07-13T01:32:23;2.80;;;0.50;;
20476;SDS011;10397;50.948;11.092;2023-07-13T01:34:53;4.90;;;0.55;;
20476;SDS011;10397;50.948;11.092;2023-07-13T01:37:24;1.40;;;0.53;;
20476;SDS011;10397;50.948;11.092;2023-07-13T01:39:55;2.35;;;0.50;;
20476;SDS011;10397;50.948;11.092;2023-07-13T01:42:27;3.37;;;0.50;;
20476;SDS011;10397;50.948;11.092;2023-07-13T01:44:57;1.98;;;0.50;;
20476;SDS011;10397;50.948;11.092;2023-07-13T01:47:29;2.08;;;0.50;;
20476;SDS011;10397;50.948;11.092;2023-07-13T01:50:00;1.77;;;0.50;;
20476;SDS011;10397;50.948;11.092;2023-07-13T01:52:31;1.95;;;0.50;;
20476;SDS011;10397;50.948;11.092;2023-07-13T01:55:03;2.17;;;0.40;;
20476;SDS011;10397;50.948;11.092;2023-07-13T01:57:34;2.72;;;0.60;;
20476;SDS011;10397;50.948;11.092;2023-07-13T02:00:06;1.47;;;0.50;;
20476;SDS011;10397;50.948;11.092;2023-07-13T02:02:36;1.80;;;0.35;;
20476;SDS011;10397;50.948;11.092;2023-07-13T02:05:08;1.57;;;0.60;;
20476;SDS011;10397;50.948;11.092;2023-07-13T02:07:39;1.32;;;0.50;;
20476;SDS011;10397;50.948;11.092;2023-07-13T02:10:10;5.30;;;0.75;;
20476;SDS011;10397;50.948;11.092;2023-07-13T02:12:41;2.55;;;0.57;;
20476;SDS011;10397;50.948;11.092;2023-07-13T02:15:13;1.75;;;0.60;;
20476;SDS011;10397;50.948;11.092;2023-07-13T02:17:44;1.20;;;0.55;;
20476;SDS011;10397;50.948;11.092;2023-07-13T02:20:16;3.60;;;0.70;;
20476;SDS011;10397;50.948;11.092;2023-07-13T02:22:46;2.00;;;0.63;;
20476;SDS011;10397;50.948;11.092;2023-07-13T02:25:18;3.65;;;0.75;;
20476;SDS011;10397;50.948;11.092;2023-07-13T02:27:49;3.08;;;0.70;;
20476;SDS011;10397;50.948;11.092;2023-07-13T02:30:21;1.07;;;0.72;;
20476;SDS011;10397;50.948;11.092;2023-07-13T02:32:52;2.20;;;0.60;;
20476;SDS011;10397;50.948;11.092;2023-07-13T02:35:23;4.10;;;0.65;;
20476;SDS011;10397;50.948;11.092;2023-07-13T02:37:55;12.55;;;0.50;;
20476;SDS011;10397;50.948;11.092;2023-07-13T02:40:26;2.62;;;0.57;;
20476;SDS011;10397;50.948;11.092;2023-07-13T02:42:58;2.85;;;0.60;;
20476;SDS011;10397;50.948;11.092;2023-07-13T02:45:29;3.95;;;0.62;;
20476;SDS011;10397;50.948;11.092;2023-07-13T02:48:01;2.45;;;0.60;;
20476;SDS011;10397;50.948;11.092;2023-07-13T02:50:32;2.80;;;0.47;;
20476;SDS011;10397;50.948;11.092;2023-07-13T02:53:04;5.58;;;0.70;;
20476;SDS011;10397;50.948;11.092;2023-07-13T02:55:35;1.82;;;0.53;;
20476;SDS011;10397;50.948;11.092;2023-07-13T02:58:06;3.77;;;0.60;;
20476;SDS011;10397;50.948;11.092;2023-07-13T03:00:37;2.30;;;0.70;;
20476;SDS011;10397;50.948;11.092;2023-07-13T03:03:07;4.87;;;0.83;;
20476;SDS011;10397;50.948;11.092;2023-07-13T03:05:39;1.72;;;0.60;;
20476;SDS011;10397;50.948;11.092;2023-07-13T03:08:09;3.17;;;0.70;;
20476;SDS011;10397;50.948;11.092;2023-07-13T03:10:40;2.47;;;0.35;;
20476;SDS011;10397;50.948;11.092;2023-07-13T03:13:12;2.20;;;0.60;;
20476;SDS011;10397;50.948;11.092;2023-07-13T03:15:43;1.60;;;0.60;;
20476;SDS011;10397;50.948;11.092;2023-07-13T03:18:14;3.02;;;0.53;;
20476;SDS011;10397;50.948;11.092;2023-07-13T03:20:46;3.05;;;0.50;;
20476;SDS011;10397;50.948;11.092;2023-07-13T03:23:18;4.42;;;0.50;;
20476;SDS011;10397;50.948;11.092;2023-07-13T03:25:49;2.17;;;0.70;;
20476;SDS011;10397;50.948;11.092;2023-07-13T03:28:20;1.85;;;0.50;;
20476;SDS011;10397;50.948;11.092;2023-07-13T03:30:58;2.33;;;0.55;;
20476;SDS011;10397;50.948;11.092;2023-07-13T03:33:23;3.90;;;0.53;;
20476;SDS011;10397;50.948;11.092;2023-07-13T03:35:55;2.55;;;0.68;;
20476;SDS011;10397;50.948;11.092;2023-07-13T03:38:25;1.05;;;0.40;;
20476;SDS011;10397;50.948;11.092;2023-07-13T03:40:57;1.85;;;0.50;;
20476;SDS011;10397;50.948;11.092;2023-07-13T03:43:28;2.80;;;0.50;;
20476;SDS011;10397;50.948;11.092;2023-07-13T03:46:00;1.52;;;0.60;;
20476;SDS011;10397;50.948;11.092;2023-07-13T03:48:31;2.05;;;0.70;;
20476;SDS011;10397;50.948;11.092;2023-07-13T03:51:03;3.17;;;0.62;;
20476;SDS011;10397;50.948;11.092;2023-07-13T03:53:38;1.17;;;0.90;;
20476;SDS011;10397;50.948;11.092;2023-07-13T03:56:08;1.60;;;0.80;;
20476;SDS011;10397;50.948;11.092;2023-07-13T03:58:39;2.42;;;0.68;;
20476;SDS011;10397;50.948;11.092;2023-07-13T04:01:10;1.20;;;0.50;;
20476;SDS011;10397;50.948;11.092;2023-07-13T04:03:40;1.90;;;0.50;;
20476;SDS011;10397;50.948;11.092;2023-07-13T04:06:16;1.62;;;0.80;;
20476;SDS011;10397;50.948;11.092;2023-07-13T04:08:48;1.40;;;0.70;;
20476;SDS011;10397;50.948;11.092;2023-07-13T04:11:19;1.47;;;0.75;;
20476;SDS011;10397;50.948;11.092;2023-07-13T04:13:49;2.27;;;0.80;;
20476;SDS011;10397;50.948;11.092;2023-07-13T04:16:21;6.17;;;0.80;;
20476;SDS011;10397;50.948;11.092;2023-07-13T04:18:52;2.22;;;0.80;;
20476;SDS011;10397;50.948;11.092;2023-07-13T04:21:22;3.70;;;0.77;;
20476;SDS011;10397;50.948;11.092;2023-07-13T04:23:54;4.53;;;0.50;;
20476;SDS011;10397;50.948;11.092;2023-07-13T04:26:25;3.75;;;1.20;;
20476;SDS011;10397;50.948;11.092;2023-07-13T04:28:57;1.80;;;0.60;;
20476;SDS011;10397;50.948;11.092;2023-07-13T04:31:28;1.72;;;0.68;;
20476;SDS011;10397;50.948;11.092;2023-07-13T04:33:59;1.65;;;0.80;;
20476;SDS011;10397;50.948;11.092;2023-07-13T04:36:30;2.87;;;0.90;;
20476;SDS011;10397;50.948;11.092;2023-07-13T04:39:02;1.35;;;0.62;;
20476;SDS011;10397;50.948;11.092;2023-07-13T04:41:33;1.60;;;0.60;;
20476;SDS011;10397;50.948;11.092;2023-07-13T04:44:05;2.83;;;0.80;;
20476;SDS011;10397;50.948;11.092;2023-07-13T04:46:36;5.35;;;0.80;;
20476;SDS011;10397;50.948;11.092;2023-07-13T04:49:07;3.85;;;0.80;;
20476;SDS011;10397;50.948;11.092;2023-07-13T04:51:39;2.33;;;0.78;;
20476;SDS011;10397;50.948;11.092;2023-07-13T04:54:11;1.15;;;0.70;;
20476;SDS011;10397;50.948;11.092;2023-07-13T04:56:42;3.37;;;0.95;;
20476;SDS011;10397;50.948;11.092;2023-07-13T04:59:13;1.37;;;0.60;;
20476;SDS011;10397;50.948;11.092;2023-07-13T05:01:45;3.58;;;1.00;;
20476;SDS011;10397;50.948;11.092;2023-07-13T05:04:17;3.90;;;0.98;;
20476;SDS011;10397;50.948;11.092;2023-07-13T05:06:48;5.72;;;0.93;;
20476;SDS011;10397;50.948;11.092;2023-07-13T05:09:20;6.03;;;0.80;;
20476;SDS011;10397;50.948;11.092;2023-07-13T05:11:51;2.80;;;0.83;;
20476;SDS011;10397;50.948;11.092;2023-07-13T05:14:22;2.30;;;0.80;;
20476;SDS011;10397;50.948;11.092;2023-07-13T05:16:54;2.17;;;0.68;;
20476;SDS011;10397;50.948;11.092;2023-07-13T05:19:26;4.03;;;0.80;;
20476;SDS011;10397;50.948;11.092;2023-07-13T05:21:57;1.90;;;0.80;;
20476;SDS011;10397;50.948;11.092;2023-07-13T05:24:28;4.75;;;0.90;;
20476;SDS011;10397;50.948;11.092;2023-07-13T05:27:00;2.25;;;1.02;;
20476;SDS011;10397;50.948;11.092;2023-07-13T05:29:31;2.15;;;0.90;;
20476;SDS011;10397;50.948;11.092;2023-07-13T05:32:03;4.00;;;0.93;;
20476;SDS011;10397;50.948;11.092;2023-07-13T05:34:33;2.70;;;0.83;;
20476;SDS011;10397;50.948;11.092;2023-07-13T05:37:05;2.55;;;1.00;;
20476;SDS011;10397;50.948;11.092;2023-07-13T05:39:36;3.43;;;1.07;;
20476;SDS011;10397;50.948;11.092;2023-07-13T05:42:07;4.03;;;1.15;;
20476;SDS011;10397;50.948;11.092;2023-07-13T05:44:38;2.10;;;0.70;;
20476;SDS011;10397;50.948;11.092;2023-07-13T05:47:10;4.17;;;0.78;;
20476;SDS011;10397;50.948;11.092;2023-07-13T05:49:41;4.25;;;1.37;;
20476;SDS011;10397;50.948;11.092;2023-07-13T05:52:12;3.13;;;0.87;;
20476;SDS011;10397;50.948;11.092;2023-07-13T05:54:44;2.40;;;0.95;;
20476;SDS011;10397;50.948;11.092;2023-07-13T05:57:15;2.35;;;0.80;;
20476;SDS011;10397;50.948;11.092;2023-07-13T05:59:47;9.32;;;1.20;;
20476;SDS011;10397;50.948;11.092;2023-07-13T06:02:19;5.97;;;1.70;;
20476;SDS011;10397;50.948;11.092;2023-07-13T06:04:50;2.12;;;0.90;;
20476;SDS011;10397;50.948;11.092;2023-07-13T06:07:22;4.97;;;0.80;;
20476;SDS011;10397;50.948;11.092;2023-07-13T06:09:53;3.08;;;0.93;;
20476;SDS011;10397;50.948;11.092;2023-07-13T06:12:25;5.28;;;1.00;;
20476;SDS011;10397;50.948;11.092;2023-07-13T06:14:55;5.97;;;1.27;;
20476;SDS011;10397;50.948;11.092;2023-07-13T06:17:27;4.53;;;0.90;;
20476;SDS011;10397;50.948;11.092;2023-07-13T06:19:59;5.22;;;0.85;;
20476;SDS011;10397;50.948;11.092;2023-07-13T06:22:30;5.40;;;0.80;;
20476;SDS011;10397;50.948;11.092;2023-07-13T06:25:02;2.55;;;0.80;;
20476;SDS011;10397;50.948;11.092;2023-07-13T06:27:33;2.33;;;0.90;;
20476;SDS011;10397;50.948;11.092;2023-07-13T06:30:05;7.15;;;0.93;;
20476;SDS011;10397;50.948;11.092;2023-07-13T06:32:36;9.43;;;1.05;;
20476;SDS011;10397;50.948;11.092;2023-07-13T06:35:07;3.60;;;0.90;;
20476;SDS011;10397;50.948;11.092;2023-07-13T06:37:38;3.83;;;0.90;;
20476;SDS011;10397;50.948;11.092;2023-07-13T06:40:10;2.62;;;1.00;;
20476;SDS011;10397;50.948;11.092;2023-07-13T06:42:40;6.07;;;1.10;;
20476;SDS011;10397;50.948;11.092;2023-07-13T06:45:11;2.27;;;0.83;;
20476;SDS011;10397;50.948;11.092;2023-07-13T06:47:43;3.83;;;0.72;;
20476;SDS011;10397;50.948;11.092;2023-07-13T06:50:14;3.25;;;0.80;;
20476;SDS011;10397;50.948;11.092;2023-07-13T06:52:46;4.83;;;0.68;;
20476;SDS011;10397;50.948;11.092;2023-07-13T06:55:17;9.83;;;1.12;;
20476;SDS011;10397;50.948;11.092;2023-07-13T06:57:49;2.83;;;0.75;;
20476;SDS011;10397;50.948;11.092;2023-07-13T07:00:21;2.83;;;0.60;;
20476;SDS011;10397;50.948;11.092;2023-07-13T07:02:52;2.75;;;0.80;;
20476;SDS011;10397;50.948;11.092;2023-07-13T07:05:23;2.12;;;0.80;;
20476;SDS011;10397;50.948;11.092;2023-07-13T07:07:55;8.43;;;1.05;;
20476;SDS011;10397;50.948;11.092;2023-07-13T07:10:28;2.92;;;1.00;;
20476;SDS011;10397;50.948;11.092;2023-07-13T07:12:57;2.50;;;1.05;;
20476;SDS011;10397;50.948;11.092;2023-07-13T07:15:29;4.45;;;1.32;;
20476;SDS011;10397;50.948;11.092;2023-07-13T07:18:00;2.77;;;1.02;;
20476;SDS011;10397;50.948;11.092;2023-07-13T07:20:32;4.97;;;1.05;;
20476;SDS011;10397;50.948;11.092;2023-07-13T07:23:03;4.42;;;1.27;;
20476;SDS011;10397;50.948;11.092;2023-07-13T07:25:35;3.70;;;1.00;;
20476;SDS011;10397;50.948;11.092;2023-07-13T07:28:05;4.97;;;1.40;;
20476;SDS011;10397;50.948;11.092;2023-07-13T07:30:37;3.40;;;1.00;;
20476;SDS011;10397;50.948;11.092;2023-07-13T07:33:08;5.47;;;1.22;;
20476;SDS011;10397;50.948;11.092;2023-07-13T07:35:39;4.50;;;1.45;;
20476;SDS011;10397;50.948;11.092;2023-07-13T07:38:11;2.33;;;0.90;;
20476;SDS011;10397;50.948;11.092;2023-07-13T07:40:42;2.40;;;0.93;;
20476;SDS011;10397;50.948;11.092;2023-07-13T07:43:14;5.17;;;0.93;;
20476;SDS011;10397;50.948;11.092;2023-07-13T07:45:45;7.47;;;1.40;;
20476;SDS011;10397;50.948;11.092;2023-07-13T07:48:16;5.50;;;0.70;;
20476;SDS011;10397;50.948;11.092;2023-07-13T07:50:48;6.85;;;1.37;;
20476;SDS011;10397;50.948;11.092;2023-07-13T07:53:19;5.17;;;1.10;;
20476;SDS011;10397;50.948;11.092;2023-07-13T07:55:51;3.75;;;0.70;;
20476;SDS011;10397;50.948;11.092;2023-07-13T07:58:22;4.53;;;1.07;;
20476;SDS011;10397;50.948;11.092;2023-07-13T08:00:53;5.58;;;1.02;;
20476;SDS011;10397;50.948;11.092;2023-07-13T08:03:25;4.37;;;1.20;;
20476;SDS011;10397;50.948;11.092;2023-07-13T08:05:57;6.22;;;1.12;;
20476;SDS011;10397;50.948;11.092;2023-07-13T08:08:28;3.37;;;1.00;;
20476;SDS011;10397;50.948;11.092;2023-07-13T08:11:02;4.33;;;1.15;;
20476;SDS011;10397;50.948;11.092;2023-07-13T08:13:33;1.93;;;0.57;;
20476;SDS011;10397;50.948;11.092;2023-07-13T08:16:04;4.92;;;0.70;;
20476;SDS011;10397;50.948;11.092;2023-07-13T08:18:35;8.73;;;1.17;;
20476;SDS011;10397;50.948;11.092;2023-07-13T08:21:07;4.73;;;1.17;;
20476;SDS011;10397;50.948;11.092;2023-07-13T08:23:38;3.85;;;0.55;;
20476;SDS011;10397;50.948;11.092;2023-07-13T08:26:10;4.15;;;1.15;;
20476;SDS011;10397;50.948;11.092;2023-07-13T08:28:41;5.87;;;0.72;;
20476;SDS011;10397;50.948;11.092;2023-07-13T08:31:12;2.37;;;0.82;;
20476;SDS011;10397;50.948;11.092;2023-07-13T08:33:43;4.07;;;0.60;;
20476;SDS011;10397;50.948;11.092;2023-07-13T08:36:15;3.00;;;0.50;;
20476;SDS011;10397;50.948;11.092;2023-07-13T08:38:46;3.15;;;0.45;;
20476;SDS011;10397;50.948;11.092;2023-07-13T08:41:18;3.02;;;0.50;;
20476;SDS011;10397;50.948;11.092;2023-07-13T08:43:53;1.00;;;0.40;;
20476;SDS011;10397;50.948;11.092;2023-07-13T08:46:28;6.12;;;0.80;;
20476;SDS011;10397;50.948;11.092;2023-07-13T08:48:58;2.40;;;0.50;;
20476;SDS011;10397;50.948;11.092;2023-07-13T08:54:03;1.47;;;0.43;;
20476;SDS011;10397;50.948;11.092;2023-07-13T08:56:33;1.90;;;0.60;;
20476;SDS011;10397;50.948;11.092;2023-07-13T08:59:15;4.12;;;0.82;;
20476;SDS011;10397;50.948;11.092;2023-07-13T09:01:44;3.27;;;0.50;;
20476;SDS011;10397;50.948;11.092;2023-07-13T09:04:14;4.50;;;0.60;;
20476;SDS011;10397;50.948;11.092;2023-07-13T09:09:26;2.40;;;0.40;;
20476;SDS011;10397;50.948;11.092;2023-07-13T09:11:56;1.37;;;0.40;;
20476;SDS011;10397;50.948;11.092;2023-07-13T09:14:34;3.37;;;0.40;;
20476;SDS011;10397;50.948;11.092;2023-07-13T09:17:08;3.27;;;0.40;;
20476;SDS011;10397;50.948;11.092;2023-07-13T09:19:36;2.87;;;0.40;;
20476;SDS011;10397;50.948;11.092;2023-07-13T09:22:10;2.40;;;0.47;;
20476;SDS011;10397;50.948;11.092;2023-07-13T09:24:41;0.77;;;0.40;;
20476;SDS011;10397;50.948;11.092;2023-07-13T09:27:13;0.87;;;0.40;;
20476;SDS011;10397;50.948;11.092;2023-07-13T09:29:50;2.07;;;0.30;;
20476;SDS011;10397;50.948;11.092;2023-07-13T09:32:19;1.80;;;0.53;;
20476;SDS011;10397;50.948;11.092;2023-07-13T09:34:51;3.47;;;0.45;;
20476;SDS011;10397;50.948;11.092;2023-07-13T09:37:21;2.43;;;0.47;;
20476;SDS011;10397;50.948;11.092;2023-07-13T09:39:52;2.60;;;0.33;;
20476;SDS011;10397;50.948;11.092;2023-07-13T09:42:23;2.25;;;0.53;;
20476;SDS011;10397;50.948;11.092;2023-07-13T09:44:55;2.42;;;0.50;;
20476;SDS011;10397;50.948;11.092;2023-07-13T09:47:28;6.07;;;0.50;;
20476;SDS011;10397;50.948;11.092;2023-07-13T09:50:02;1.22;;;0.40;;
20476;SDS011;10397;50.948;11.092;2023-07-13T09:52:42;1.23;;;0.50;;
20476;SDS011;10397;50.948;11.092;2023-07-13T09:55:25;1.73;;;0.40;;
20476;SDS011;10397;50.948;11.092;2023-07-13T09:57:54;1.17;;;0.40;;
20476;SDS011;10397;50.948;11.092;2023-07-13T10:00:28;1.00;;;0.40;;
20476;SDS011;10397;50.948;11.092;2023-07-13T10:03:04;3.52;;;0.40;;
20476;SDS011;10397;50.948;11.092;2023-07-13T10:05:43;1.07;;;0.40;;
20476;SDS011;10397;50.948;11.092;2023-07-13T10:08:20;3.60;;;0.40;;
20476;SDS011;10397;50.948;11.092;2023-07-13T10:10:52;0.73;;;0.20;;
20476;SDS011;10397;50.948;11.092;2023-07-13T10:13:46;2.07;;;0.40;;
20476;SDS011;10397;50.948;11.092;2023-07-13T10:15:58;1.87;;;0.40;;
20476;SDS011;10397;50.948;11.092;2023-07-13T10:18:30;0.65;;;0.30;;
20476;SDS011;10397;50.948;11.092;2023-07-13T10:21:09;0.50;;;0.30;;
20476;SDS011;10397;50.948;11.092;2023-07-13T10:23:37;2.17;;;0.40;;
20476;SDS011;10397;50.948;11.092;2023-07-13T10:26:10;2.00;;;0.40;;
20476;SDS011;10397;50.948;11.092;2023-07-13T10:28:39;1.07;;;0.30;;
20476;SDS011;10397;50.948;11.092;2023-07-13T10:31:12;2.40;;;0.28;;
20476;SDS011;10397;50.948;11.092;2023-07-13T10:33:41;4.73;;;0.30;;
20476;SDS011;10397;50.948;11.092;2023-07-13T10:36:14;1.77;;;0.40;;
20476;SDS011;10397;50.948;11.092;2023-07-13T10:38:59;1.70;;;0.30;;
20476;SDS011;10397;50.948;11.092;2023-07-13T10:41:29;3.17;;;0.30;;
20476;SDS011;10397;50.948;11.092;2023-07-13T10:44:00;1.42;;;0.40;;
20476;SDS011;10397;50.948;11.092;2023-07-13T10:46:31;0.70;;;0.40;;
20476;SDS011;10397;50.948;11.092;2023-07-13T10:49:04;1.83;;;0.50;;
20476;SDS011;10397;50.948;11.092;2023-07-13T10:51:34;1.30;;;0.30;;
20476;SDS011;10397;50.948;11.092;2023-07-13T10:54:15;4.05;;;0.47;;
20476;SDS011;10397;50.948;11.092;2023-07-13T10:56:42;1.30;;;0.40;;
20476;SDS011;10397;50.948;11.092;2023-07-13T10:59:15;2.98;;;0.50;;
20476;SDS011;10397;50.948;11.092;2023-07-13T11:01:51;0.70;;;0.30;;
20476;SDS011;10397;50.948;11.092;2023-07-13T11:04:25;1.43;;;0.20;;
20476;SDS011;10397;50.948;11.092;2023-07-13T11:06:57;2.02;;;0.30;;
20476;SDS011;10397;50.948;11.092;2023-07-13T11:09:31;0.63;;;0.30;;
20476;SDS011;10397;50.948;11.092;2023-07-13T11:20:18;1.10;;;0.40;;
20476;SDS011;10397;50.948;11.092;2023-07-13T11:22:51;1.57;;;0.43;;
20476;SDS011;10397;50.948;11.092;2023-07-13T11:25:29;0.97;;;0.40;;
20476;SDS011;10397;50.948;11.092;2023-07-13T11:30:38;1.70;;;0.47;;
20476;SDS011;10397;50.948;11.092;2023-07-13T11:33:13;1.90;;;0.50;;
20476;SDS011;10397;50.948;11.092;2023-07-13T11:38:28;4.37;;;0.43;;
20476;SDS011;10397;50.948;11.092;2023-07-13T11:40:55;2.47;;;0.40;;
20476;SDS011;10397;50.948;11.092;2023-07-13T11:43:26;2.37;;;0.42;;
20476;SDS011;10397;50.948;11.092;2023-07-13T11:45:57;1.50;;;0.62;;
20476;SDS011;10397;50.948;11.092;2023-07-13T11:48:29;0.67;;;0.30;;
20476;SDS011;10397;50.948;11.092;2023-07-13T11:51:01;0.75;;;0.30;;
20476;SDS011;10397;50.948;11.092;2023-07-13T11:53:31;6.93;;;0.40;;
20476;SDS011;10397;50.948;11.092;2023-07-13T11:56:00;3.50;;;0.40;;
20476;SDS011;10397;50.948;11.092;2023-07-13T11:58:31;1.22;;;0.20;;
20476;SDS011;10397;50.948;11.092;2023-07-13T12:01:03;2.52;;;0.42;;
20476;SDS011;10397;50.948;11.092;2023-07-13T12:03:34;2.35;;;0.30;;
20476;SDS011;10397;50.948;11.092;2023-07-13T12:06:06;1.35;;;0.50;;
20476;SDS011;10397;50.948;11.092;2023-07-13T12:08:40;6.53;;;0.50;;
20476;SDS011;10397;50.948;11.092;2023-07-13T12:11:27;1.22;;;0.30;;
20476;SDS011;10397;50.948;11.092;2023-07-13T12:13:46;1.50;;;0.27;;
20476;SDS011;10397;50.948;11.092;2023-07-13T12:16:22;0.88;;;0.50;;
20476;SDS011;10397;50.948;11.092;2023-07-13T12:19:03;1.13;;;0.40;;
20476;SDS011;10397;50.948;11.092;2023-07-13T12:21:36;1.22;;;0.40;;
20476;SDS011;10397;50.948;11.092;2023-07-13T12:24:11;1.47;;;0.40;;
20476;SDS011;10397;50.948;11.092;2023-07-13T12:26:36;3.25;;;0.33;;
20476;SDS011;10397;50.948;11.092;2023-07-13T12:29:07;1.22;;;0.50;;
20476;SDS011;10397;50.948;11.092;2023-07-13T12:31:43;2.62;;;0.35;;
20476;SDS011;10397;50.948;11.092;2023-07-13T12:34:13;1.23;;;0.40;;
20476;SDS011;10397;50.948;11.092;2023-07-13T12:36:46;1.07;;;0.40;;
20476;SDS011;10397;50.948;11.092;2023-07-13T12:39:23;3.80;;;0.40;;
20476;SDS011;10397;50.948;11.092;2023-07-13T12:41:53;0.90;;;0.37;;
20476;SDS011;10397;50.948;11.092;2023-07-13T12:44:27;1.02;;;0.30;;
20476;SDS011;10397;50.948;11.092;2023-07-13T12:47:06;1.07;;;0.30;;
20476;SDS011;10397;50.948;11.092;2023-07-13T12:49:39;1.17;;;0.40;;
20476;SDS011;10397;50.948;11.092;2023-07-13T12:52:10;1.60;;;0.40;;
20476;SDS011;10397;50.948;11.092;2023-07-13T12:54:39;0.87;;;0.37;;
20476;SDS011;10397;50.948;11.092;2023-07-13T12:57:13;2.70;;;0.45;;
20476;SDS011;10397;50.948;11.092;2023-07-13T12:59:41;0.68;;;0.30;;
20476;SDS011;10397;50.948;11.092;2023-07-13T13:02:18;4.12;;;0.60;;
20476;SDS011;10397;50.948;11.092;2023-07-13T13:04:58;3.67;;;0.20;;
20476;SDS011;10397;50.948;11.092;2023-07-13T13:07:28;1.17;;;0.35;;
20476;SDS011;10397;50.948;11.092;2023-07-13T13:10:00;0.65;;;0.20;;
20476;SDS011;10397;50.948;11.092;2023-07-13T13:12:30;2.90;;;0.50;;
20476;SDS011;10397;50.948;11.092;2023-07-13T13:15:01;4.53;;;0.40;;
20476;SDS011;10397;50.948;11.092;2023-07-13T13:17:32;0.77;;;0.30;;
20476;SDS011;10397;50.948;11.092;2023-07-13T13:20:16;1.00;;;0.40;;
20476;SDS011;10397;50.948;11.092;2023-07-13T13:22:48;1.20;;;0.40;;
20476;SDS011;10397;50.948;11.092;2023-07-13T13:25:19;1.27;;;0.30;;
20476;SDS011;10397;50.948;11.092;2023-07-13T13:27:50;1.77;;;0.40;;
20476;SDS011;10397;50.948;11.092;2023-07-13T13:30:21;1.27;;;0.35;;
20476;SDS011;10397;50.948;11.092;2023-07-13T13:32:52;1.70;;;0.40;;
20476;SDS011;10397;50.948;11.092;2023-07-13T13:35:23;3.60;;;0.30;;
20476;SDS011;10397;50.948;11.092;2023-07-13T13:37:54;1.65;;;0.37;;
20476;SDS011;10397;50.948;11.092;2023-07-13T13:40:25;2.10;;;0.50;;
20476;SDS011;10397;50.948;11.092;2023-07-13T13:42:57;1.35;;;0.45;;
20476;SDS011;10397;50.948;11.092;2023-07-13T13:45:28;1.77;;;0.40;;
20476;SDS011;10397;50.948;11.092;2023-07-13T13:47:59;1.77;;;0.50;;
20476;SDS011;10397;50.948;11.092;2023-07-13T13:50:31;0.60;;;0.20;;
20476;SDS011;10397;50.948;11.092;2023-07-13T13:53:02;2.53;;;0.30;;
20476;SDS011;10397;50.948;11.092;2023-07-13T13:55:33;1.32;;;0.30;;
20476;SDS011;10397;50.948;11.092;2023-07-13T13:58:05;0.93;;;0.30;;
20476;SDS011;10397;50.948;11.092;2023-07-13T14:00:37;1.27;;;0.40;;
20476;SDS011;10397;50.948;11.092;2023-07-13T14:03:08;1.03;;;0.33;;
20476;SDS011;10397;50.948;11.092;2023-07-13T14:05:37;1.17;;;0.33;;
20476;SDS011;10397;50.948;11.092;2023-07-13T14:08:12;0.63;;;0.30;;
20476;SDS011;10397;50.948;11.092;2023-07-13T14:10:42;0.93;;;0.47;;
20476;SDS011;10397;50.948;11.092;2023-07-13T14:13:20;1.77;;;0.27;;
20476;SDS011;10397;50.948;11.092;2023-07-13T14:15:55;2.87;;;0.30;;
20476;SDS011;10397;50.948;11.092;2023-07-13T14:18:26;2.60;;;0.53;;
20476;SDS011;10397;50.948;11.092;2023-07-13T14:20:57;1.77;;;0.30;;
20476;SDS011;10397;50.948;11.092;2023-07-13T14:23:28;1.02;;;0.30;;
20476;SDS011;10397;50.948;11.092;2023-07-13T14:26:00;2.50;;;0.40;;
20476;SDS011;10397;50.948;11.092;2023-07-13T14:28:31;1.57;;;0.33;;
20476;SDS011;10397;50.948;11.092;2023-07-13T14:31:02;1.30;;;0.40;;
20476;SDS011;10397;50.948;11.092;2023-07-13T14:33:33;2.27;;;0.33;;
20476;SDS011;10397;50.948;11.092;2023-07-13T14:39:00;0.50;;;0.20;;
20476;SDS011;10397;50.948;11.092;2023-07-13T14:41:30;1.20;;;0.30;;
20476;SDS011;10397;50.948;11.092;2023-07-13T14:44:01;2.70;;;0.65;;
20476;SDS011;10397;50.948;11.092;2023-07-13T14:46:33;2.83;;;0.20;;
20476;SDS011;10397;50.948;11.092;2023-07-13T14:49:04;1.05;;;0.42;;
20476;SDS011;10397;50.948;11.092;2023-07-13T14:51:34;1.17;;;0.30;;
20476;SDS011;10397;50.948;11.092;2023-07-13T14:54:05;1.60;;;0.30;;
20476;SDS011;10397;50.948;11.092;2023-07-13T14:56:35;1.90;;;0.30;;
20476;SDS011;10397;50.948;11.092;2023-07-13T14:59:06;1.03;;;0.20;;
20476;SDS011;10397;50.948;11.092;2023-07-13T15:01:37;3.20;;;0.40;;
20476;SDS011;10397;50.948;11.092;2023-07-13T15:04:08;2.22;;;0.30;;
20476;SDS011;10397;50.948;11.092;2023-07-13T15:06:56;1.65;;;0.50;;
20476;SDS011;10397;50.948;11.092;2023-07-13T15:09:22;2.43;;;0.30;;
20476;SDS011;10397;50.948;11.092;2023-07-13T15:11:54;2.60;;;0.70;;
20476;SDS011;10397;50.948;11.092;2023-07-13T15:14:26;4.00;;;0.40;;
20476;SDS011;10397;50.948;11.092;2023-07-13T15:16:57;0.50;;;0.30;;
20476;SDS011;10397;50.948;11.092;2023-07-13T15:19:28;2.37;;;0.30;;
20476;SDS011;10397;50.948;11.092;2023-07-13T15:21:59;0.72;;;0.20;;